sensor_id;sensor_type;location;lat;lon;timestamp;temperature;humidity
5962;DHT22;3007;50.770;0.250;2023-07-09T00:01:43;19.40;99.90
5962;DHT22;3007;50.770;0.250;2023-07-09T00:04:10;19.40;99.90
5962;DHT22;3007;50.770;0.250;2023-07-09T00:06:37;19.40;99.90
5962;DHT22;3007;50.770;0.250;2023-07-09T00:09:06;19.40;99.90
5962;DHT22;3007;50.770;0.250;2023-07-09T00:11:39;19.40;99.90
5962;DHT22;3007;50.770;0.250;2023-07-09T00:14:07;19.30;99.90
5962;DHT22;3007;50.770;0.250;2023-07-09T00:16:34;19.30;99.90
5962;DHT22;3007;50.770;0.250;2023-07-09T00:19:02;19.30;99.90
5962;DHT22;3007;50.770;0.250;2023-07-09T00:21:29;19.30;99.90
5962;DHT22;3007;50.770;0.250;2023-07-09T00:23:59;19.30;99.90
5962;DHT22;3007;50.770;0.250;2023-07-09T00:26:31;19.30;99.90
5962;DHT22;3007;50.770;0.250;2023-07-09T00:28:58;19.20;99.90
5962;DHT22;3007;50.770;0.250;2023-07-09T00:31:26;19.20;99.90
5962;DHT22;3007;50.770;0.250;2023-07-09T00:33:53;19.20;99.90
5962;DHT22;3007;50.770;0.250;2023-07-09T00:36:26;19.10;99.90
5962;DHT22;3007;50.770;0.250;2023-07-09T00:38:55;19.10;99.90
5962;DHT22;3007;50.770;0.250;2023-07-09T00:41:25;19.10;99.90
5962;DHT22;3007;50.770;0.250;2023-07-09T00:43:55;19.60;99.90
5962;DHT22;3007;50.770;0.250;2023-07-09T00:49:29;19.10;99.90
5962;DHT22;3007;50.770;0.250;2023-07-09T00:52:00;19.10;99.90
5962;DHT22;3007;50.770;0.250;2023-07-09T00:54:31;19.10;99.90
5962;DHT22;3007;50.770;0.250;2023-07-09T00:57:06;19.20;99.90
5962;DHT22;3007;50.770;0.250;2023-07-09T00:59:36;19.20;99.90
5962;DHT22;3007;50.770;0.250;2023-07-09T01:02:06;19.20;99.90
5962;DHT22;3007;50.770;0.250;2023-07-09T01:04:34;19.20;99.90
5962;DHT22;3007;50.770;0.250;2023-07-09T01:07:01;19.20;99.90
5962;DHT22;3007;50.770;0.250;2023-07-09T01:09:29;19.20;99.90
5962;DHT22;3007;50.770;0.250;2023-07-09T01:11:58;19.20;99.90
5962;DHT22;3007;50.770;0.250;2023-07-09T01:14:27;19.20;99.90
5962;DHT22;3007;50.770;0.250;2023-07-09T01:17:00;19.20;99.90
5962;DHT22;3007;50.770;0.250;2023-07-09T01:19:29;19.10;99.90
5962;DHT22;3007;50.770;0.250;2023-07-09T01:21:59;19.10;99.90
5962;DHT22;3007;50.770;0.250;2023-07-09T01:24:49;19.10;99.90
5962;DHT22;3007;50.770;0.250;2023-07-09T01:27:18;19.10;99.90
5962;DHT22;3007;50.770;0.250;2023-07-09T01:29:45;19.10;99.90
5962;DHT22;3007;50.770;0.250;2023-07-09T01:32:15;19.00;99.90
5962;DHT22;3007;50.770;0.250;2023-07-09T01:34:43;19.00;99.90
5962;DHT22;3007;50.770;0.250;2023-07-09T01:37:11;18.90;99.90
5962;DHT22;3007;50.770;0.250;2023-07-09T01:39:38;19.00;99.90
5962;DHT22;3007;50.770;0.250;2023-07-09T01:42:07;19.00;99.90
5962;DHT22;3007;50.770;0.250;2023-07-09T01:44:34;19.00;99.90
5962;DHT22;3007;50.770;0.250;2023-07-09T01:47:01;19.00;99.90
5962;DHT22;3007;50.770;0.250;2023-07-09T01:49:29;19.10;99.90
5962;DHT22;3007;50.770;0.250;2023-07-09T01:51:58;19.10;99.90
5962;DHT22;3007;50.770;0.250;2023-07-09T01:54:28;19.10;99.90
5962;DHT22;3007;50.770;0.250;2023-07-09T01:57:13;19.10;99.90
5962;DHT22;3007;50.770;0.250;2023-07-09T01:59:40;19.20;99.90
5962;DHT22;3007;50.770;0.250;2023-07-09T02:02:07;19.10;99.90
5962;DHT22;3007;50.770;0.250;2023-07-09T02:04:34;19.20;99.90
5962;DHT22;3007;50.770;0.250;2023-07-09T02:07:01;19.20;99.90
5962;DHT22;3007;50.770;0.250;2023-07-09T02:09:29;19.20;99.90
5962;DHT22;3007;50.770;0.250;2023-07-09T02:11:56;19.20;99.90
5962;DHT22;3007;50.770;0.250;2023-07-09T02:14:23;19.20;99.90
5962;DHT22;3007;50.770;0.250;2023-07-09T02:16:50;19.10;99.90
5962;DHT22;3007;50.770;0.250;2023-07-09T02:19:18;19.10;99.90
5962;DHT22;3007;50.770;0.250;2023-07-09T02:21:45;19.10;99.90
5962;DHT22;3007;50.770;0.250;2023-07-09T02:24:12;19.10;99.90
5962;DHT22;3007;50.770;0.250;2023-07-09T02:26:40;19.00;99.90
5962;DHT22;3007;50.770;0.250;2023-07-09T02:29:07;19.00;99.90
5962;DHT22;3007;50.770;0.250;2023-07-09T02:31:34;19.00;99.90
5962;DHT22;3007;50.770;0.250;2023-07-09T02:34:01;18.90;99.90
5962;DHT22;3007;50.770;0.250;2023-07-09T02:36:28;18.90;99.90
5962;DHT22;3007;50.770;0.250;2023-07-09T02:38:55;18.80;99.90
5962;DHT22;3007;50.770;0.250;2023-07-09T02:41:22;18.80;99.90
5962;DHT22;3007;50.770;0.250;2023-07-09T02:43:50;18.70;99.90
5962;DHT22;3007;50.770;0.250;2023-07-09T02:46:17;18.70;99.90
5962;DHT22;3007;50.770;0.250;2023-07-09T02:48:44;18.70;99.90
5962;DHT22;3007;50.770;0.250;2023-07-09T02:51:11;18.70;99.90
5962;DHT22;3007;50.770;0.250;2023-07-09T02:53:37;18.70;99.90
5962;DHT22;3007;50.770;0.250;2023-07-09T02:56:04;18.60;99.90
5962;DHT22;3007;50.770;0.250;2023-07-09T02:58:31;18.70;99.90
5962;DHT22;3007;50.770;0.250;2023-07-09T03:00:59;18.60;99.90
5962;DHT22;3007;50.770;0.250;2023-07-09T03:03:26;18.60;99.90
5962;DHT22;3007;50.770;0.250;2023-07-09T03:05:54;18.60;99.90
5962;DHT22;3007;50.770;0.250;2023-07-09T03:08:20;18.60;99.90
5962;DHT22;3007;50.770;0.250;2023-07-09T03:10:47;18.50;99.90
5962;DHT22;3007;50.770;0.250;2023-07-09T03:13:14;18.50;99.90
5962;DHT22;3007;50.770;0.250;2023-07-09T03:15:41;18.40;99.90
5962;DHT22;3007;50.770;0.250;2023-07-09T03:18:09;18.30;99.90
5962;DHT22;3007;50.770;0.250;2023-07-09T03:20:36;18.30;99.90
5962;DHT22;3007;50.770;0.250;2023-07-09T03:23:04;18.30;99.90
5962;DHT22;3007;50.770;0.250;2023-07-09T03:25:31;18.30;99.90
5962;DHT22;3007;50.770;0.250;2023-07-09T03:27:58;18.30;99.90
5962;DHT22;3007;50.770;0.250;2023-07-09T03:30:25;18.30;99.90
5962;DHT22;3007;50.770;0.250;2023-07-09T03:32:51;18.30;99.90
5962;DHT22;3007;50.770;0.250;2023-07-09T03:35:20;18.30;99.90
5962;DHT22;3007;50.770;0.250;2023-07-09T03:37:47;18.30;99.90
5962;DHT22;3007;50.770;0.250;2023-07-09T03:40:20;18.20;99.90
5962;DHT22;3007;50.770;0.250;2023-07-09T03:42:48;18.20;99.90
5962;DHT22;3007;50.770;0.250;2023-07-09T03:45:15;18.20;99.90
5962;DHT22;3007;50.770;0.250;2023-07-09T03:47:42;18.10;99.90
5962;DHT22;3007;50.770;0.250;2023-07-09T03:50:10;18.10;99.90
5962;DHT22;3007;50.770;0.250;2023-07-09T03:52:38;18.00;99.90
5962;DHT22;3007;50.770;0.250;2023-07-09T03:55:06;18.00;99.90
5962;DHT22;3007;50.770;0.250;2023-07-09T03:57:34;18.00;99.90
5962;DHT22;3007;50.770;0.250;2023-07-09T04:00:02;18.00;99.90
5962;DHT22;3007;50.770;0.250;2023-07-09T04:02:30;18.00;99.90
5962;DHT22;3007;50.770;0.250;2023-07-09T04:04:57;18.00;99.90
5962;DHT22;3007;50.770;0.250;2023-07-09T04:07:24;18.10;99.90
5962;DHT22;3007;50.770;0.250;2023-07-09T04:09:52;18.10;99.90
5962;DHT22;3007;50.770;0.250;2023-07-09T04:12:19;18.10;99.90
5962;DHT22;3007;50.770;0.250;2023-07-09T04:14:46;18.10;99.90
5962;DHT22;3007;50.770;0.250;2023-07-09T04:17:13;18.10;99.90
5962;DHT22;3007;50.770;0.250;2023-07-09T04:19:40;18.10;99.90
5962;DHT22;3007;50.770;0.250;2023-07-09T04:22:07;18.20;99.90
5962;DHT22;3007;50.770;0.250;2023-07-09T04:24:34;18.20;99.90
5962;DHT22;3007;50.770;0.250;2023-07-09T04:27:06;18.20;99.90
5962;DHT22;3007;50.770;0.250;2023-07-09T04:29:33;18.30;99.90
5962;DHT22;3007;50.770;0.250;2023-07-09T04:32:01;18.30;99.90
5962;DHT22;3007;50.770;0.250;2023-07-09T04:34:28;18.40;99.90
5962;DHT22;3007;50.770;0.250;2023-07-09T04:36:54;18.50;99.90
5962;DHT22;3007;50.770;0.250;2023-07-09T04:39:21;18.60;99.90
5962;DHT22;3007;50.770;0.250;2023-07-09T04:41:48;18.60;99.90
5962;DHT22;3007;50.770;0.250;2023-07-09T04:44:17;18.60;99.90
5962;DHT22;3007;50.770;0.250;2023-07-09T04:46:43;18.70;99.90
5962;DHT22;3007;50.770;0.250;2023-07-09T04:49:10;18.60;99.90
5962;DHT22;3007;50.770;0.250;2023-07-09T04:51:38;18.60;99.90
5962;DHT22;3007;50.770;0.250;2023-07-09T04:54:04;18.70;99.90
5962;DHT22;3007;50.770;0.250;2023-07-09T04:56:31;18.70;99.90
5962;DHT22;3007;50.770;0.250;2023-07-09T04:58:58;18.70;99.90
5962;DHT22;3007;50.770;0.250;2023-07-09T05:01:27;18.70;99.90
5962;DHT22;3007;50.770;0.250;2023-07-09T05:03:54;18.70;99.90
5962;DHT22;3007;50.770;0.250;2023-07-09T05:06:21;18.70;99.90
5962;DHT22;3007;50.770;0.250;2023-07-09T05:08:48;18.70;99.90
5962;DHT22;3007;50.770;0.250;2023-07-09T05:11:15;18.70;99.90
5962;DHT22;3007;50.770;0.250;2023-07-09T05:13:42;18.70;99.90
5962;DHT22;3007;50.770;0.250;2023-07-09T05:16:09;18.70;99.90
5962;DHT22;3007;50.770;0.250;2023-07-09T05:18:37;17.80;99.90
5962;DHT22;3007;50.770;0.250;2023-07-09T05:21:04;18.70;99.90
5962;DHT22;3007;50.770;0.250;2023-07-09T05:23:31;18.70;99.90
5962;DHT22;3007;50.770;0.250;2023-07-09T05:25:58;18.70;99.90
5962;DHT22;3007;50.770;0.250;2023-07-09T05:28:26;18.70;99.90
5962;DHT22;3007;50.770;0.250;2023-07-09T05:30:53;18.70;99.90
5962;DHT22;3007;50.770;0.250;2023-07-09T05:33:20;18.80;99.90
5962;DHT22;3007;50.770;0.250;2023-07-09T05:35:49;18.80;99.90
5962;DHT22;3007;50.770;0.250;2023-07-09T05:38:16;18.90;99.90
5962;DHT22;3007;50.770;0.250;2023-07-09T05:40:43;19.00;99.90
5962;DHT22;3007;50.770;0.250;2023-07-09T05:43:10;19.40;99.90
5962;DHT22;3007;50.770;0.250;2023-07-09T05:45:38;20.00;99.90
5962;DHT22;3007;50.770;0.250;2023-07-09T05:48:05;20.90;99.90
5962;DHT22;3007;50.770;0.250;2023-07-09T05:50:33;21.90;99.90
5962;DHT22;3007;50.770;0.250;2023-07-09T05:53:02;22.60;99.90
5962;DHT22;3007;50.770;0.250;2023-07-09T05:55:28;23.40;99.90
5962;DHT22;3007;50.770;0.250;2023-07-09T05:57:55;23.50;99.90
5962;DHT22;3007;50.770;0.250;2023-07-09T06:00:22;23.30;99.90
5962;DHT22;3007;50.770;0.250;2023-07-09T06:02:49;23.10;99.90
5962;DHT22;3007;50.770;0.250;2023-07-09T06:05:16;22.80;99.90
5962;DHT22;3007;50.770;0.250;2023-07-09T06:07:43;22.60;99.90
5962;DHT22;3007;50.770;0.250;2023-07-09T06:10:11;22.60;99.90
5962;DHT22;3007;50.770;0.250;2023-07-09T06:12:39;22.80;99.90
5962;DHT22;3007;50.770;0.250;2023-07-09T06:15:07;22.80;99.90
5962;DHT22;3007;50.770;0.250;2023-07-09T06:17:34;23.00;99.90
5962;DHT22;3007;50.770;0.250;2023-07-09T06:20:01;23.40;99.90
5962;DHT22;3007;50.770;0.250;2023-07-09T06:22:28;23.50;99.90
5962;DHT22;3007;50.770;0.250;2023-07-09T06:24:54;23.50;99.90
5962;DHT22;3007;50.770;0.250;2023-07-09T06:27:23;23.40;99.90
5962;DHT22;3007;50.770;0.250;2023-07-09T06:29:50;23.20;99.90
5962;DHT22;3007;50.770;0.250;2023-07-09T06:32:16;23.00;99.90
5962;DHT22;3007;50.770;0.250;2023-07-09T06:34:43;23.00;99.90
5962;DHT22;3007;50.770;0.250;2023-07-09T06:37:10;23.00;99.90
5962;DHT22;3007;50.770;0.250;2023-07-09T06:39:37;22.90;99.90
5962;DHT22;3007;50.770;0.250;2023-07-09T06:42:04;22.70;99.90
5962;DHT22;3007;50.770;0.250;2023-07-09T06:44:32;22.60;99.90
5962;DHT22;3007;50.770;0.250;2023-07-09T06:46:59;22.40;99.90
5962;DHT22;3007;50.770;0.250;2023-07-09T06:49:27;22.30;99.90
5962;DHT22;3007;50.770;0.250;2023-07-09T06:51:54;22.10;99.90
5962;DHT22;3007;50.770;0.250;2023-07-09T06:54:21;22.00;99.90
5962;DHT22;3007;50.770;0.250;2023-07-09T06:56:48;21.90;99.90
5962;DHT22;3007;50.770;0.250;2023-07-09T06:59:14;21.70;99.90
5962;DHT22;3007;50.770;0.250;2023-07-09T07:01:43;21.60;99.90
5962;DHT22;3007;50.770;0.250;2023-07-09T07:04:09;21.60;99.90
5962;DHT22;3007;50.770;0.250;2023-07-09T07:06:36;21.50;99.90
5962;DHT22;3007;50.770;0.250;2023-07-09T07:09:03;21.40;99.90
5962;DHT22;3007;50.770;0.250;2023-07-09T07:11:30;21.30;99.90
5962;DHT22;3007;50.770;0.250;2023-07-09T07:13:57;21.20;99.90
5962;DHT22;3007;50.770;0.250;2023-07-09T07:16:24;21.20;99.90
5962;DHT22;3007;50.770;0.250;2023-07-09T07:18:52;21.20;99.90
5962;DHT22;3007;50.770;0.250;2023-07-09T07:21:19;21.10;99.90
5962;DHT22;3007;50.770;0.250;2023-07-09T07:23:46;21.10;99.90
5962;DHT22;3007;50.770;0.250;2023-07-09T07:26:13;21.10;99.90
5962;DHT22;3007;50.770;0.250;2023-07-09T07:28:39;21.20;99.90
5962;DHT22;3007;50.770;0.250;2023-07-09T07:31:08;21.20;99.90
5962;DHT22;3007;50.770;0.250;2023-07-09T07:33:36;21.20;99.90
5962;DHT22;3007;50.770;0.250;2023-07-09T07:36:05;21.20;99.90
5962;DHT22;3007;50.770;0.250;2023-07-09T07:38:32;21.10;99.90
5962;DHT22;3007;50.770;0.250;2023-07-09T07:41:00;21.00;99.90
5962;DHT22;3007;50.770;0.250;2023-07-09T07:43:27;20.90;99.90
5962;DHT22;3007;50.770;0.250;2023-07-09T07:45:54;20.80;99.90
5962;DHT22;3007;50.770;0.250;2023-07-09T07:48:21;20.80;99.90
5962;DHT22;3007;50.770;0.250;2023-07-09T07:50:47;20.70;99.90
5962;DHT22;3007;50.770;0.250;2023-07-09T07:53:16;20.60;99.90
5962;DHT22;3007;50.770;0.250;2023-07-09T07:55:43;20.50;99.90
5962;DHT22;3007;50.770;0.250;2023-07-09T07:58:11;20.40;99.90
5962;DHT22;3007;50.770;0.250;2023-07-09T08:00:39;20.30;99.90
5962;DHT22;3007;50.770;0.250;2023-07-09T08:03:06;20.30;99.90
5962;DHT22;3007;50.770;0.250;2023-07-09T08:05:33;20.20;99.90
5962;DHT22;3007;50.770;0.250;2023-07-09T08:08:00;20.20;99.90
5962;DHT22;3007;50.770;0.250;2023-07-09T08:10:28;20.20;99.90
5962;DHT22;3007;50.770;0.250;2023-07-09T08:12:55;20.10;99.90
5962;DHT22;3007;50.770;0.250;2023-07-09T08:15:23;20.10;99.90
5962;DHT22;3007;50.770;0.250;2023-07-09T08:17:50;20.10;99.90
5962;DHT22;3007;50.770;0.250;2023-07-09T08:20:17;20.10;99.90
5962;DHT22;3007;50.770;0.250;2023-07-09T08:22:43;20.10;99.90
5962;DHT22;3007;50.770;0.250;2023-07-09T08:25:12;20.10;99.90
5962;DHT22;3007;50.770;0.250;2023-07-09T08:27:40;20.10;99.90
5962;DHT22;3007;50.770;0.250;2023-07-09T08:30:08;20.00;99.90
5962;DHT22;3007;50.770;0.250;2023-07-09T08:32:35;20.00;99.90
5962;DHT22;3007;50.770;0.250;2023-07-09T08:35:02;20.10;99.90
5962;DHT22;3007;50.770;0.250;2023-07-09T08:37:29;20.10;99.90
5962;DHT22;3007;50.770;0.250;2023-07-09T08:39:56;20.20;99.90
5962;DHT22;3007;50.770;0.250;2023-07-09T08:42:28;20.30;99.90
5962;DHT22;3007;50.770;0.250;2023-07-09T08:45:07;20.40;99.90
5962;DHT22;3007;50.770;0.250;2023-07-09T08:47:43;20.40;99.90
5962;DHT22;3007;50.770;0.250;2023-07-09T08:50:16;20.40;99.90
5962;DHT22;3007;50.770;0.250;2023-07-09T08:52:45;20.30;99.90
5962;DHT22;3007;50.770;0.250;2023-07-09T08:55:15;20.20;99.90
5962;DHT22;3007;50.770;0.250;2023-07-09T08:57:44;20.10;99.90
5962;DHT22;3007;50.770;0.250;2023-07-09T09:00:18;20.00;99.90
5962;DHT22;3007;50.770;0.250;2023-07-09T09:02:51;20.00;99.90
5962;DHT22;3007;50.770;0.250;2023-07-09T09:05:20;20.00;99.90
5962;DHT22;3007;50.770;0.250;2023-07-09T09:07:51;20.00;99.90
5962;DHT22;3007;50.770;0.250;2023-07-09T09:10:26;20.00;99.90
5962;DHT22;3007;50.770;0.250;2023-07-09T09:13:05;20.00;99.90
5962;DHT22;3007;50.770;0.250;2023-07-09T09:15:37;20.00;99.90
5962;DHT22;3007;50.770;0.250;2023-07-09T09:18:22;19.90;99.90
5962;DHT22;3007;50.770;0.250;2023-07-09T09:20:55;19.90;99.90
5962;DHT22;3007;50.770;0.250;2023-07-09T09:23:38;20.10;99.90
5962;DHT22;3007;50.770;0.250;2023-07-09T09:26:18;20.30;99.90
5962;DHT22;3007;50.770;0.250;2023-07-09T09:28:45;20.50;99.90
5962;DHT22;3007;50.770;0.250;2023-07-09T09:31:15;20.60;99.90
5962;DHT22;3007;50.770;0.250;2023-07-09T09:33:45;20.60;99.90
5962;DHT22;3007;50.770;0.250;2023-07-09T09:36:16;20.60;99.90
5962;DHT22;3007;50.770;0.250;2023-07-09T09:38:43;20.60;99.90
5962;DHT22;3007;50.770;0.250;2023-07-09T09:41:14;20.60;99.90
5962;DHT22;3007;50.770;0.250;2023-07-09T09:43:44;20.60;99.90
5962;DHT22;3007;50.770;0.250;2023-07-09T09:46:17;20.60;99.90
5962;DHT22;3007;50.770;0.250;2023-07-09T09:48:46;20.70;99.90
5962;DHT22;3007;50.770;0.250;2023-07-09T09:51:13;20.90;99.90
5962;DHT22;3007;50.770;0.250;2023-07-09T09:53:44;21.10;99.90
5962;DHT22;3007;50.770;0.250;2023-07-09T09:56:15;21.20;99.90
5962;DHT22;3007;50.770;0.250;2023-07-09T09:58:44;21.30;99.90
5962;DHT22;3007;50.770;0.250;2023-07-09T10:01:17;21.30;99.90
5962;DHT22;3007;50.770;0.250;2023-07-09T10:03:46;21.30;99.90
5962;DHT22;3007;50.770;0.250;2023-07-09T10:06:16;21.30;99.90
5962;DHT22;3007;50.770;0.250;2023-07-09T10:08:52;21.20;99.90
5962;DHT22;3007;50.770;0.250;2023-07-09T10:11:29;21.20;99.90
5962;DHT22;3007;50.770;0.250;2023-07-09T10:14:01;21.20;99.90
5962;DHT22;3007;50.770;0.250;2023-07-09T10:16:36;21.10;99.90
5962;DHT22;3007;50.770;0.250;2023-07-09T10:19:14;21.00;99.90
5962;DHT22;3007;50.770;0.250;2023-07-09T10:21:46;21.00;99.90
5962;DHT22;3007;50.770;0.250;2023-07-09T10:24:30;20.90;99.90
5962;DHT22;3007;50.770;0.250;2023-07-09T10:27:10;20.80;99.90
5962;DHT22;3007;50.770;0.250;2023-07-09T10:29:50;20.80;99.90
5962;DHT22;3007;50.770;0.250;2023-07-09T10:32:34;20.70;99.90
5962;DHT22;3007;50.770;0.250;2023-07-09T10:35:09;20.80;99.90
5962;DHT22;3007;50.770;0.250;2023-07-09T10:38:07;20.90;99.90
5962;DHT22;3007;50.770;0.250;2023-07-09T10:40:41;21.00;99.90
5962;DHT22;3007;50.770;0.250;2023-07-09T10:43:13;21.00;99.90
5962;DHT22;3007;50.770;0.250;2023-07-09T10:45:44;21.00;99.90
5962;DHT22;3007;50.770;0.250;2023-07-09T10:48:16;21.00;99.90
5962;DHT22;3007;50.770;0.250;2023-07-09T10:50:47;20.90;99.90
5962;DHT22;3007;50.770;0.250;2023-07-09T10:53:24;20.90;99.90
5962;DHT22;3007;50.770;0.250;2023-07-09T10:55:57;21.00;99.90
5962;DHT22;3007;50.770;0.250;2023-07-09T10:58:33;21.20;99.90
5962;DHT22;3007;50.770;0.250;2023-07-09T11:01:01;21.40;99.90
5962;DHT22;3007;50.770;0.250;2023-07-09T11:03:38;21.60;99.90
5962;DHT22;3007;50.770;0.250;2023-07-09T11:06:16;21.70;99.90
5962;DHT22;3007;50.770;0.250;2023-07-09T11:08:45;21.90;99.90
5962;DHT22;3007;50.770;0.250;2023-07-09T11:11:17;22.00;99.90
5962;DHT22;3007;50.770;0.250;2023-07-09T11:13:52;22.10;99.90
5962;DHT22;3007;50.770;0.250;2023-07-09T11:16:25;22.20;99.90
5962;DHT22;3007;50.770;0.250;2023-07-09T11:18:58;22.30;99.90
5962;DHT22;3007;50.770;0.250;2023-07-09T11:21:25;22.40;99.90
5962;DHT22;3007;50.770;0.250;2023-07-09T11:23:54;22.40;99.90
5962;DHT22;3007;50.770;0.250;2023-07-09T11:26:23;22.40;99.90
5962;DHT22;3007;50.770;0.250;2023-07-09T11:28:53;22.30;99.90
5962;DHT22;3007;50.770;0.250;2023-07-09T11:31:24;22.30;99.90
5962;DHT22;3007;50.770;0.250;2023-07-09T11:34:02;22.30;99.90
5962;DHT22;3007;50.770;0.250;2023-07-09T11:36:30;22.40;99.90
5962;DHT22;3007;50.770;0.250;2023-07-09T11:38:57;22.50;99.90
5962;DHT22;3007;50.770;0.250;2023-07-09T11:41:37;22.70;99.90
5962;DHT22;3007;50.770;0.250;2023-07-09T11:44:12;22.90;99.90
5962;DHT22;3007;50.770;0.250;2023-07-09T11:49:51;23.10;99.90
5962;DHT22;3007;50.770;0.250;2023-07-09T11:52:25;23.20;99.90
5962;DHT22;3007;50.770;0.250;2023-07-09T11:54:53;23.30;99.90
5962;DHT22;3007;50.770;0.250;2023-07-09T11:57:21;23.30;99.90
5962;DHT22;3007;50.770;0.250;2023-07-09T11:59:48;23.40;99.90
5962;DHT22;3007;50.770;0.250;2023-07-09T12:02:17;23.40;99.90
5962;DHT22;3007;50.770;0.250;2023-07-09T12:04:49;23.50;99.90
5962;DHT22;3007;50.770;0.250;2023-07-09T12:07:17;23.50;99.90
5962;DHT22;3007;50.770;0.250;2023-07-09T12:09:48;23.50;99.90
5962;DHT22;3007;50.770;0.250;2023-07-09T12:12:21;23.60;99.90
5962;DHT22;3007;50.770;0.250;2023-07-09T12:14:48;23.60;99.90
5962;DHT22;3007;50.770;0.250;2023-07-09T12:17:15;23.50;99.90
5962;DHT22;3007;50.770;0.250;2023-07-09T12:19:42;23.40;99.90
5962;DHT22;3007;50.770;0.250;2023-07-09T12:22:19;23.30;99.90
5962;DHT22;3007;50.770;0.250;2023-07-09T12:24:48;23.30;99.90
5962;DHT22;3007;50.770;0.250;2023-07-09T12:27:22;23.20;99.90
5962;DHT22;3007;50.770;0.250;2023-07-09T12:29:51;23.20;99.90
5962;DHT22;3007;50.770;0.250;2023-07-09T12:32:19;23.10;99.90
5962;DHT22;3007;50.770;0.250;2023-07-09T12:34:50;23.00;99.90
5962;DHT22;3007;50.770;0.250;2023-07-09T12:37:20;23.00;99.90
5962;DHT22;3007;50.770;0.250;2023-07-09T12:39:49;22.80;99.90
5962;DHT22;3007;50.770;0.250;2023-07-09T12:42:19;22.70;99.90
5962;DHT22;3007;50.770;0.250;2023-07-09T12:44:46;22.70;99.90
5962;DHT22;3007;50.770;0.250;2023-07-09T12:47:15;22.70;99.90
5962;DHT22;3007;50.770;0.250;2023-07-09T12:49:44;22.70;99.90
5962;DHT22;3007;50.770;0.250;2023-07-09T12:52:18;22.70;99.90
5962;DHT22;3007;50.770;0.250;2023-07-09T12:54:55;22.70;99.90
5962;DHT22;3007;50.770;0.250;2023-07-09T12:57:23;22.70;99.90
5962;DHT22;3007;50.770;0.250;2023-07-09T12:59:50;22.70;99.90
5962;DHT22;3007;50.770;0.250;2023-07-09T13:02:19;22.60;99.90
5962;DHT22;3007;50.770;0.250;2023-07-09T13:04:46;22.60;99.90
5962;DHT22;3007;50.770;0.250;2023-07-09T13:07:31;22.60;99.90
5962;DHT22;3007;50.770;0.250;2023-07-09T13:10:06;22.50;99.90
5962;DHT22;3007;50.770;0.250;2023-07-09T13:12:34;22.40;99.90
5962;DHT22;3007;50.770;0.250;2023-07-09T13:15:01;22.40;99.90
5962;DHT22;3007;50.770;0.250;2023-07-09T13:17:30;22.40;99.90
5962;DHT22;3007;50.770;0.250;2023-07-09T13:19:57;22.50;99.90
5962;DHT22;3007;50.770;0.250;2023-07-09T13:22:24;22.40;99.90
5962;DHT22;3007;50.770;0.250;2023-07-09T13:24:53;22.30;99.90
5962;DHT22;3007;50.770;0.250;2023-07-09T13:27:19;22.20;99.90
5962;DHT22;3007;50.770;0.250;2023-07-09T13:29:46;22.20;99.90
5962;DHT22;3007;50.770;0.250;2023-07-09T13:32:14;22.20;99.90
5962;DHT22;3007;50.770;0.250;2023-07-09T13:34:42;22.20;99.90
5962;DHT22;3007;50.770;0.250;2023-07-09T13:37:12;22.20;99.90
5962;DHT22;3007;50.770;0.250;2023-07-09T13:39:40;22.20;99.90
5962;DHT22;3007;50.770;0.250;2023-07-09T13:42:13;22.10;99.90
5962;DHT22;3007;50.770;0.250;2023-07-09T13:44:41;22.10;99.90
5962;DHT22;3007;50.770;0.250;2023-07-09T13:47:12;22.00;99.90
5962;DHT22;3007;50.770;0.250;2023-07-09T13:49:42;22.00;99.90
5962;DHT22;3007;50.770;0.250;2023-07-09T13:52:14;22.00;99.90
5962;DHT22;3007;50.770;0.250;2023-07-09T13:54:42;21.90;99.90
5962;DHT22;3007;50.770;0.250;2023-07-09T13:57:16;21.90;99.90
5962;DHT22;3007;50.770;0.250;2023-07-09T13:59:43;21.90;99.90
5962;DHT22;3007;50.770;0.250;2023-07-09T14:02:21;21.90;99.90
5962;DHT22;3007;50.770;0.250;2023-07-09T14:04:49;21.90;99.90
5962;DHT22;3007;50.770;0.250;2023-07-09T14:07:26;21.90;99.90
5962;DHT22;3007;50.770;0.250;2023-07-09T14:09:53;22.00;99.90
5962;DHT22;3007;50.770;0.250;2023-07-09T14:12:22;22.00;99.90
5962;DHT22;3007;50.770;0.250;2023-07-09T14:14:50;22.00;99.90
5962;DHT22;3007;50.770;0.250;2023-07-09T14:17:17;22.00;99.90
5962;DHT22;3007;50.770;0.250;2023-07-09T14:19:44;22.10;99.90
5962;DHT22;3007;50.770;0.250;2023-07-09T14:22:23;22.20;99.90
5962;DHT22;3007;50.770;0.250;2023-07-09T14:24:52;22.40;99.90
5962;DHT22;3007;50.770;0.250;2023-07-09T14:27:19;22.50;99.90
5962;DHT22;3007;50.770;0.250;2023-07-09T14:29:47;22.60;99.90
5962;DHT22;3007;50.770;0.250;2023-07-09T14:32:34;22.60;99.90
5962;DHT22;3007;50.770;0.250;2023-07-09T14:35:01;22.80;99.90
5962;DHT22;3007;50.770;0.250;2023-07-09T14:37:28;22.90;99.90
5962;DHT22;3007;50.770;0.250;2023-07-09T14:39:55;22.90;99.90
5962;DHT22;3007;50.770;0.250;2023-07-09T14:42:22;22.90;99.90
5962;DHT22;3007;50.770;0.250;2023-07-09T14:44:51;23.00;99.90
5962;DHT22;3007;50.770;0.250;2023-07-09T14:47:19;22.90;99.90
5962;DHT22;3007;50.770;0.250;2023-07-09T14:49:47;22.90;99.90
5962;DHT22;3007;50.770;0.250;2023-07-09T14:52:18;22.80;99.90
5962;DHT22;3007;50.770;0.250;2023-07-09T14:54:47;22.70;99.90
5962;DHT22;3007;50.770;0.250;2023-07-09T14:57:19;22.70;99.90
5962;DHT22;3007;50.770;0.250;2023-07-09T14:59:47;22.70;99.90
5962;DHT22;3007;50.770;0.250;2023-07-09T15:02:32;22.70;99.90
5962;DHT22;3007;50.770;0.250;2023-07-09T15:05:00;22.70;86.40
5962;DHT22;3007;50.770;0.250;2023-07-09T15:07:27;22.70;76.90
5962;DHT22;3007;50.770;0.250;2023-07-09T15:09:56;22.70;71.90
5962;DHT22;3007;50.770;0.250;2023-07-09T15:12:26;22.60;56.00
5962;DHT22;3007;50.770;0.250;2023-07-09T15:14:58;22.70;63.20
5962;DHT22;3007;50.770;0.250;2023-07-09T15:17:27;22.70;79.00
5962;DHT22;3007;50.770;0.250;2023-07-09T15:19:54;22.80;87.70
5962;DHT22;3007;50.770;0.250;2023-07-09T15:22:27;22.80;90.20
5962;DHT22;3007;50.770;0.250;2023-07-09T15:24:55;22.90;90.00
5962;DHT22;3007;50.770;0.250;2023-07-09T15:27:22;22.90;90.30
5962;DHT22;3007;50.770;0.250;2023-07-09T15:29:49;22.90;89.50
5962;DHT22;3007;50.770;0.250;2023-07-09T15:32:16;22.90;85.70
5962;DHT22;3007;50.770;0.250;2023-07-09T15:34:47;22.90;76.10
5962;DHT22;3007;50.770;0.250;2023-07-09T15:37:16;22.90;78.10
5962;DHT22;3007;50.770;0.250;2023-07-09T15:39:43;23.00;91.10
5962;DHT22;3007;50.770;0.250;2023-07-09T15:42:11;23.00;79.40
5962;DHT22;3007;50.770;0.250;2023-07-09T15:44:39;23.10;88.20
5962;DHT22;3007;50.770;0.250;2023-07-09T15:47:15;23.10;88.30
5962;DHT22;3007;50.770;0.250;2023-07-09T15:49:44;23.10;82.70
5962;DHT22;3007;50.770;0.250;2023-07-09T15:52:11;23.10;75.60
5962;DHT22;3007;50.770;0.250;2023-07-09T15:54:38;23.10;68.70
5962;DHT22;3007;50.770;0.250;2023-07-09T15:57:05;23.10;57.60
5962;DHT22;3007;50.770;0.250;2023-07-09T15:59:35;23.00;63.80
5962;DHT22;3007;50.770;0.250;2023-07-09T16:02:09;23.00;58.70
5962;DHT22;3007;50.770;0.250;2023-07-09T16:04:37;23.00;64.30
5962;DHT22;3007;50.770;0.250;2023-07-09T16:07:05;23.00;70.10
5962;DHT22;3007;50.770;0.250;2023-07-09T16:09:32;23.00;87.50
5962;DHT22;3007;50.770;0.250;2023-07-09T16:11:59;23.10;91.30
5962;DHT22;3007;50.770;0.250;2023-07-09T16:14:28;23.10;95.30
5962;DHT22;3007;50.770;0.250;2023-07-09T16:16:57;23.30;91.30
5962;DHT22;3007;50.770;0.250;2023-07-09T16:19:28;23.30;80.50
5962;DHT22;3007;50.770;0.250;2023-07-09T16:21:58;23.30;79.70